sensor_id;sensor_type;location;lat;lon;timestamp;P1;durP1;ratioP1;P2;durP2;ratioP2
3841;SDS011;1936;47.074;15.336;2024-01-10T00:00:56;8.13;;;4.63;;
3841;SDS011;1936;47.074;15.336;2024-01-10T00:03:03;9.98;;;5.68;;
3841;SDS011;1936;47.074;15.336;2024-01-10T00:05:08;7.22;;;4.97;;
3841;SDS011;1936;47.074;15.336;2024-01-10T00:07:11;6.10;;;4.00;;
3841;SDS011;1936;47.074;15.336;2024-01-10T00:09:14;4.80;;;4.05;;
3841;SDS011;1936;47.074;15.336;2024-01-10T00:11:18;7.07;;;4.55;;
3841;SDS011;1936;47.074;15.336;2024-01-10T00:13:21;5.03;;;4.53;;
3841;SDS011;1936;47.074;15.336;2024-01-10T00:15:25;6.97;;;4.57;;
3841;SDS011;1936;47.074;15.336;2024-01-10T00:17:28;5.03;;;4.03;;
3841;SDS011;1936;47.074;15.336;2024-01-10T00:19:31;6.78;;;4.35;;
3841;SDS011;1936;47.074;15.336;2024-01-10T00:21:39;5.95;;;4.97;;
3841;SDS011;1936;47.074;15.336;2024-01-10T00:23:43;6.65;;;4.93;;
3841;SDS011;1936;47.074;15.336;2024-01-10T00:25:46;5.93;;;4.22;;
3841;SDS011;1936;47.074;15.336;2024-01-10T00:27:49;7.15;;;4.47;;
3841;SDS011;1936;47.074;15.336;2024-01-10T00:29:52;7.68;;;5.95;;
3841;SDS011;1936;47.074;15.336;2024-01-10T00:31:57;6.13;;;5.05;;
3841;SDS011;1936;47.074;15.336;2024-01-10T00:34:01;7.20;;;4.70;;
3841;SDS011;1936;47.074;15.336;2024-01-10T00:36:05;7.43;;;4.93;;
3841;SDS011;1936;47.074;15.336;2024-01-10T00:38:10;6.88;;;4.82;;
3841;SDS011;1936;47.074;15.336;2024-01-10T00:40:14;6.55;;;4.53;;
3841;SDS011;1936;47.074;15.336;2024-01-10T00:42:18;9.68;;;5.25;;
3841;SDS011;1936;47.074;15.336;2024-01-10T00:44:21;6.43;;;5.38;;
3841;SDS011;1936;47.074;15.336;2024-01-10T00:46:25;7.00;;;4.20;;
3841;SDS011;1936;47.074;15.336;2024-01-10T00:48:28;12.30;;;5.97;;
3841;SDS011;1936;47.074;15.336;2024-01-10T00:50:32;7.07;;;5.05;;
3841;SDS011;1936;47.074;15.336;2024-01-10T00:52:34;6.80;;;5.10;;
3841;SDS011;1936;47.074;15.336;2024-01-10T00:54:41;6.70;;;4.75;;
3841;SDS011;1936;47.074;15.336;2024-01-10T00:56:45;7.35;;;4.13;;
3841;SDS011;1936;47.074;15.336;2024-01-10T00:58:48;5.72;;;4.60;;
3841;SDS011;1936;47.074;15.336;2024-01-10T01:00:52;4.20;;;3.80;;
3841;SDS011;1936;47.074;15.336;2024-01-10T01:02:55;6.45;;;4.75;;
3841;SDS011;1936;47.074;15.336;2024-01-10T01:04:58;8.40;;;4.88;;
3841;SDS011;1936;47.074;15.336;2024-01-10T01:07:03;6.97;;;4.38;;
3841;SDS011;1936;47.074;15.336;2024-01-10T01:09:06;5.30;;;4.03;;
3841;SDS011;1936;47.074;15.336;2024-01-10T01:11:13;8.77;;;5.18;;
3841;SDS011;1936;47.074;15.336;2024-01-10T01:13:16;5.30;;;3.85;;
3841;SDS011;1936;47.074;15.336;2024-01-10T01:15:21;8.63;;;5.32;;
3841;SDS011;1936;47.074;15.336;2024-01-10T01:17:25;5.93;;;4.20;;
3841;SDS011;1936;47.074;15.336;2024-01-10T01:19:28;6.28;;;4.55;;
3841;SDS011;1936;47.074;15.336;2024-01-10T01:21:31;11.80;;;5.93;;
3841;SDS011;1936;47.074;15.336;2024-01-10T01:23:34;6.43;;;4.22;;
3841;SDS011;1936;47.074;15.336;2024-01-10T01:25:43;6.38;;;4.35;;
3841;SDS011;1936;47.074;15.336;2024-01-10T01:27:48;7.00;;;4.80;;
3841;SDS011;1936;47.074;15.336;2024-01-10T01:29:51;6.80;;;4.30;;
3841;SDS011;1936;47.074;15.336;2024-01-10T01:31:54;5.07;;;3.50;;
3841;SDS011;1936;47.074;15.336;2024-01-10T01:33:58;7.50;;;4.88;;
3841;SDS011;1936;47.074;15.336;2024-01-10T01:36:01;6.65;;;5.95;;
3841;SDS011;1936;47.074;15.336;2024-01-10T01:38:05;9.85;;;4.85;;
3841;SDS011;1936;47.074;15.336;2024-01-10T01:40:09;6.22;;;4.55;;
3841;SDS011;1936;47.074;15.336;2024-01-10T01:42:12;7.00;;;3.97;;
3841;SDS011;1936;47.074;15.336;2024-01-10T01:44:16;6.45;;;4.63;;
3841;SDS011;1936;47.074;15.336;2024-01-10T01:46:20;5.22;;;4.45;;
3841;SDS011;1936;47.074;15.336;2024-01-10T01:48:24;9.13;;;4.88;;
3841;SDS011;1936;47.074;15.336;2024-01-10T01:50:30;5.72;;;4.43;;
3841;SDS011;1936;47.074;15.336;2024-01-10T01:52:33;8.18;;;4.90;;
3841;SDS011;1936;47.074;15.336;2024-01-10T01:54:37;5.32;;;3.60;;
3841;SDS011;1936;47.074;15.336;2024-01-10T01:56:43;9.15;;;4.70;;
3841;SDS011;1936;47.074;15.336;2024-01-10T01:58:47;6.53;;;4.40;;
3841;SDS011;1936;47.074;15.336;2024-01-10T02:00:53;9.85;;;4.05;;
3841;SDS011;1936;47.074;15.336;2024-01-10T02:02:57;4.60;;;4.05;;
3841;SDS011;1936;47.074;15.336;2024-01-10T02:05:02;8.43;;;4.50;;
3841;SDS011;1936;47.074;15.336;2024-01-10T02:07:06;6.40;;;4.18;;
3841;SDS011;1936;47.074;15.336;2024-01-10T02:09:09;6.45;;;4.28;;
3841;SDS011;1936;47.074;15.336;2024-01-10T02:11:15;6.18;;;4.30;;
3841;SDS011;1936;47.074;15.336;2024-01-10T02:13:21;7.80;;;4.63;;
3841;SDS011;1936;47.074;15.336;2024-01-10T02:15:25;6.82;;;4.85;;
3841;SDS011;1936;47.074;15.336;2024-01-10T02:17:31;6.70;;;3.97;;
3841;SDS011;1936;47.074;15.336;2024-01-10T02:19:33;6.30;;;4.70;;
3841;SDS011;1936;47.074;15.336;2024-01-10T02:21:36;6.45;;;5.05;;
3841;SDS011;1936;47.074;15.336;2024-01-10T02:23:40;7.43;;;5.05;;
3841;SDS011;1936;47.074;15.336;2024-01-10T02:25:44;6.22;;;4.70;;
3841;SDS011;1936;47.074;15.336;2024-01-10T02:27:48;6.90;;;5.18;;
3841;SDS011;1936;47.074;15.336;2024-01-10T02:29:51;5.80;;;4.80;;
3841;SDS011;1936;47.074;15.336;2024-01-10T02:31:55;6.10;;;4.32;;
3841;SDS011;1936;47.074;15.336;2024-01-10T02:33:59;8.55;;;5.10;;
3841;SDS011;1936;47.074;15.336;2024-01-10T02:36:04;6.18;;;4.40;;
3841;SDS011;1936;47.074;15.336;2024-01-10T02:38:14;7.88;;;4.20;;
3841;SDS011;1936;47.074;15.336;2024-01-10T02:40:17;6.20;;;4.82;;
3841;SDS011;1936;47.074;15.336;2024-01-10T02:42:22;7.45;;;4.30;;
3841;SDS011;1936;47.074;15.336;2024-01-10T02:44:26;6.53;;;4.07;;
3841;SDS011;1936;47.074;15.336;2024-01-10T02:46:29;5.55;;;4.50;;
3841;SDS011;1936;47.074;15.336;2024-01-10T02:48:32;7.40;;;4.40;;
3841;SDS011;1936;47.074;15.336;2024-01-10T02:50:35;8.90;;;4.80;;
3841;SDS011;1936;47.074;15.336;2024-01-10T02:52:39;4.35;;;3.80;;
3841;SDS011;1936;47.074;15.336;2024-01-10T02:54:43;9.23;;;4.65;;
3841;SDS011;1936;47.074;15.336;2024-01-10T02:56:46;6.60;;;5.00;;
3841;SDS011;1936;47.074;15.336;2024-01-10T02:58:51;7.22;;;4.72;;
3841;SDS011;1936;47.074;15.336;2024-01-10T03:00:54;6.63;;;5.22;;
3841;SDS011;1936;47.074;15.336;2024-01-10T03:02:59;8.43;;;4.65;;
3841;SDS011;1936;47.074;15.336;2024-01-10T03:05:03;5.85;;;4.35;;
3841;SDS011;1936;47.074;15.336;2024-01-10T03:07:07;7.65;;;5.20;;
3841;SDS011;1936;47.074;15.336;2024-01-10T03:09:12;10.05;;;4.70;;
3841;SDS011;1936;47.074;15.336;2024-01-10T03:11:15;9.13;;;4.80;;
3841;SDS011;1936;47.074;15.336;2024-01-10T03:13:19;6.15;;;4.50;;
3841;SDS011;1936;47.074;15.336;2024-01-10T03:15:23;9.70;;;4.82;;
3841;SDS011;1936;47.074;15.336;2024-01-10T03:17:27;5.70;;;4.82;;
3841;SDS011;1936;47.074;15.336;2024-01-10T03:19:30;6.22;;;5.53;;
3841;SDS011;1936;47.074;15.336;2024-01-10T03:21:33;8.77;;;5.38;;
3841;SDS011;1936;47.074;15.336;2024-01-10T03:23:36;9.98;;;5.45;;
3841;SDS011;1936;47.074;15.336;2024-01-10T03:25:39;5.47;;;4.22;;
3841;SDS011;1936;47.074;15.336;2024-01-10T03:27:43;8.27;;;4.90;;
3841;SDS011;1936;47.074;15.336;2024-01-10T03:29:46;7.47;;;5.35;;
3841;SDS011;1936;47.074;15.336;2024-01-10T03:31:51;7.00;;;5.03;;
3841;SDS011;1936;47.074;15.336;2024-01-10T03:33:54;7.90;;;4.90;;
3841;SDS011;1936;47.074;15.336;2024-01-10T03:35:58;6.65;;;4.65;;
3841;SDS011;1936;47.074;15.336;2024-01-10T03:38:01;8.20;;;5.07;;
3841;SDS011;1936;47.074;15.336;2024-01-10T03:40:05;7.10;;;5.40;;
3841;SDS011;1936;47.074;15.336;2024-01-10T03:42:10;7.22;;;5.50;;
3841;SDS011;1936;47.074;15.336;2024-01-10T03:44:13;7.03;;;5.50;;
3841;SDS011;1936;47.074;15.336;2024-01-10T03:46:17;9.43;;;6.22;;
3841;SDS011;1936;47.074;15.336;2024-01-10T03:48:21;7.93;;;5.30;;
3841;SDS011;1936;47.074;15.336;2024-01-10T03:50:25;9.82;;;6.07;;
3841;SDS011;1936;47.074;15.336;2024-01-10T03:52:28;11.10;;;6.38;;
3841;SDS011;1936;47.074;15.336;2024-01-10T03:54:32;7.80;;;6.20;;
3841;SDS011;1936;47.074;15.336;2024-01-10T03:56:36;9.88;;;6.38;;
3841;SDS011;1936;47.074;15.336;2024-01-10T03:58:38;9.75;;;6.57;;
3841;SDS011;1936;47.074;15.336;2024-01-10T04:00:42;9.73;;;6.75;;
3841;SDS011;1936;47.074;15.336;2024-01-10T04:02:44;10.20;;;5.90;;
3841;SDS011;1936;47.074;15.336;2024-01-10T04:04:52;10.55;;;6.15;;
3841;SDS011;1936;47.074;15.336;2024-01-10T04:06:54;9.77;;;6.00;;
3841;SDS011;1936;47.074;15.336;2024-01-10T04:08:57;16.13;;;8.65;;
3841;SDS011;1936;47.074;15.336;2024-01-10T04:11:01;16.58;;;8.43;;
3841;SDS011;1936;47.074;15.336;2024-01-10T04:13:05;12.40;;;6.97;;
3841;SDS011;1936;47.074;15.336;2024-01-10T04:15:09;13.93;;;7.75;;
3841;SDS011;1936;47.074;15.336;2024-01-10T04:17:13;16.42;;;7.88;;
3841;SDS011;1936;47.074;15.336;2024-01-10T04:19:16;12.38;;;7.93;;
3841;SDS011;1936;47.074;15.336;2024-01-10T04:21:21;10.45;;;8.35;;
3841;SDS011;1936;47.074;15.336;2024-01-10T04:23:24;11.95;;;7.30;;
3841;SDS011;1936;47.074;15.336;2024-01-10T04:25:28;11.38;;;7.57;;
3841;SDS011;1936;47.074;15.336;2024-01-10T04:27:30;12.23;;;8.20;;
3841;SDS011;1936;47.074;15.336;2024-01-10T04:29:34;13.07;;;8.90;;
3841;SDS011;1936;47.074;15.336;2024-01-10T04:31:37;12.30;;;8.07;;
3841;SDS011;1936;47.074;15.336;2024-01-10T04:33:41;16.05;;;10.70;;
3841;SDS011;1936;47.074;15.336;2024-01-10T04:35:44;14.93;;;9.82;;
3841;SDS011;1936;47.074;15.336;2024-01-10T04:37:48;13.55;;;8.63;;
3841;SDS011;1936;47.074;15.336;2024-01-10T04:39:52;13.23;;;8.00;;
3841;SDS011;1936;47.074;15.336;2024-01-10T04:41:55;14.93;;;7.95;;
3841;SDS011;1936;47.074;15.336;2024-01-10T04:43:59;13.95;;;7.40;;
3841;SDS011;1936;47.074;15.336;2024-01-10T04:46:02;16.10;;;9.05;;
3841;SDS011;1936;47.074;15.336;2024-01-10T04:48:05;14.60;;;9.25;;
3841;SDS011;1936;47.074;15.336;2024-01-10T04:50:08;16.33;;;10.45;;
3841;SDS011;1936;47.074;15.336;2024-01-10T04:52:15;19.33;;;10.65;;
3841;SDS011;1936;47.074;15.336;2024-01-10T04:54:20;20.60;;;11.93;;
3841;SDS011;1936;47.074;15.336;2024-01-10T04:56:24;14.18;;;10.50;;
3841;SDS011;1936;47.074;15.336;2024-01-10T04:58:28;15.82;;;8.52;;
3841;SDS011;1936;47.074;15.336;2024-01-10T05:00:31;13.68;;;7.50;;
3841;SDS011;1936;47.074;15.336;2024-01-10T05:02:35;12.15;;;7.82;;
3841;SDS011;1936;47.074;15.336;2024-01-10T05:04:38;14.57;;;8.68;;
3841;SDS011;1936;47.074;15.336;2024-01-10T05:06:41;17.75;;;8.70;;
3841;SDS011;1936;47.074;15.336;2024-01-10T05:08:44;14.48;;;8.95;;
3841;SDS011;1936;47.074;15.336;2024-01-10T05:10:49;13.30;;;6.93;;
3841;SDS011;1936;47.074;15.336;2024-01-10T05:12:53;9.98;;;7.45;;
3841;SDS011;1936;47.074;15.336;2024-01-10T05:14:56;12.27;;;7.20;;
3841;SDS011;1936;47.074;15.336;2024-01-10T05:16:59;14.63;;;6.95;;
3841;SDS011;1936;47.074;15.336;2024-01-10T05:19:02;15.02;;;8.55;;
3841;SDS011;1936;47.074;15.336;2024-01-10T05:21:05;11.40;;;7.45;;
3841;SDS011;1936;47.074;15.336;2024-01-10T05:23:09;15.02;;;7.80;;
3841;SDS011;1936;47.074;15.336;2024-01-10T05:25:13;12.70;;;8.57;;
3841;SDS011;1936;47.074;15.336;2024-01-10T05:27:21;14.88;;;8.73;;
3841;SDS011;1936;47.074;15.336;2024-01-10T05:29:25;11.52;;;7.72;;
3841;SDS011;1936;47.074;15.336;2024-01-10T05:31:29;15.15;;;8.02;;
3841;SDS011;1936;47.074;15.336;2024-01-10T05:33:33;11.30;;;7.47;;
3841;SDS011;1936;47.074;15.336;2024-01-10T05:35:38;13.35;;;8.27;;
3841;SDS011;1936;47.074;15.336;2024-01-10T05:37:41;14.52;;;8.95;;
3841;SDS011;1936;47.074;15.336;2024-01-10T05:39:45;10.27;;;6.82;;
3841;SDS011;1936;47.074;15.336;2024-01-10T05:41:49;48.10;;;23.05;;
3841;SDS011;1936;47.074;15.336;2024-01-10T05:43:54;51.75;;;26.10;;
3841;SDS011;1936;47.074;15.336;2024-01-10T05:45:56;42.15;;;22.45;;
3841;SDS011;1936;47.074;15.336;2024-01-10T05:48:00;32.42;;;19.90;;
3841;SDS011;1936;47.074;15.336;2024-01-10T05:50:05;47.85;;;20.92;;
3841;SDS011;1936;47.074;15.336;2024-01-10T05:52:08;30.40;;;17.92;;
3841;SDS011;1936;47.074;15.336;2024-01-10T05:54:11;19.10;;;11.63;;
3841;SDS011;1936;47.074;15.336;2024-01-10T05:56:14;14.43;;;10.75;;
3841;SDS011;1936;47.074;15.336;2024-01-10T05:58:17;16.90;;;10.27;;
3841;SDS011;1936;47.074;15.336;2024-01-10T06:00:23;14.90;;;9.25;;
3841;SDS011;1936;47.074;15.336;2024-01-10T06:02:27;13.63;;;8.15;;
3841;SDS011;1936;47.074;15.336;2024-01-10T06:04:31;14.73;;;10.35;;
3841;SDS011;1936;47.074;15.336;2024-01-10T06:06:34;14.07;;;8.90;;
3841;SDS011;1936;47.074;15.336;2024-01-10T06:08:37;19.02;;;10.68;;
3841;SDS011;1936;47.074;15.336;2024-01-10T06:10:40;12.85;;;8.60;;
3841;SDS011;1936;47.074;15.336;2024-01-10T06:12:43;18.08;;;11.00;;
3841;SDS011;1936;47.074;15.336;2024-01-10T06:14:46;17.17;;;12.40;;
3841;SDS011;1936;47.074;15.336;2024-01-10T06:16:51;23.27;;;12.05;;
3841;SDS011;1936;47.074;15.336;2024-01-10T06:18:57;20.70;;;11.95;;
3841;SDS011;1936;47.074;15.336;2024-01-10T06:21:01;18.25;;;12.20;;
3841;SDS011;1936;47.074;15.336;2024-01-10T06:23:05;19.05;;;11.85;;
3841;SDS011;1936;47.074;15.336;2024-01-10T06:25:08;20.77;;;11.60;;
3841;SDS011;1936;47.074;15.336;2024-01-10T06:27:11;21.13;;;12.45;;
3841;SDS011;1936;47.074;15.336;2024-01-10T06:29:14;24.42;;;13.50;;
3841;SDS011;1936;47.074;15.336;2024-01-10T06:31:18;19.60;;;11.73;;
3841;SDS011;1936;47.074;15.336;2024-01-10T06:33:23;18.67;;;12.07;;
3841;SDS011;1936;47.074;15.336;2024-01-10T06:35:27;21.38;;;12.13;;
3841;SDS011;1936;47.074;15.336;2024-01-10T06:37:31;17.77;;;10.48;;
3841;SDS011;1936;47.074;15.336;2024-01-10T06:39:36;18.45;;;11.68;;
3841;SDS011;1936;47.074;15.336;2024-01-10T06:41:40;20.67;;;12.70;;
3841;SDS011;1936;47.074;15.336;2024-01-10T06:43:45;16.48;;;12.38;;
3841;SDS011;1936;47.074;15.336;2024-01-10T06:45:48;21.02;;;11.65;;
3841;SDS011;1936;47.074;15.336;2024-01-10T06:47:52;16.30;;;10.35;;
3841;SDS011;1936;47.074;15.336;2024-01-10T06:49:57;19.33;;;9.68;;
3841;SDS011;1936;47.074;15.336;2024-01-10T06:52:00;15.55;;;9.25;;
3841;SDS011;1936;47.074;15.336;2024-01-10T06:54:03;14.88;;;10.48;;
3841;SDS011;1936;47.074;15.336;2024-01-10T06:56:07;15.85;;;10.20;;
3841;SDS011;1936;47.074;15.336;2024-01-10T06:58:11;13.40;;;8.63;;
3841;SDS011;1936;47.074;15.336;2024-01-10T07:00:14;15.85;;;11.02;;
3841;SDS011;1936;47.074;15.336;2024-01-10T07:02:19;15.90;;;9.05;;
3841;SDS011;1936;47.074;15.336;2024-01-10T07:04:22;14.68;;;9.43;;
3841;SDS011;1936;47.074;15.336;2024-01-10T07:06:27;16.20;;;9.93;;
3841;SDS011;1936;47.074;15.336;2024-01-10T07:08:31;23.20;;;11.27;;
3841;SDS011;1936;47.074;15.336;2024-01-10T07:10:35;13.57;;;9.80;;
3841;SDS011;1936;47.074;15.336;2024-01-10T07:12:40;18.42;;;9.95;;
3841;SDS011;1936;47.074;15.336;2024-01-10T07:14:43;15.45;;;9.82;;
3841;SDS011;1936;47.074;15.336;2024-01-10T07:16:47;15.18;;;9.82;;
3841;SDS011;1936;47.074;15.336;2024-01-10T07:18:51;13.10;;;8.30;;
3841;SDS011;1936;47.074;15.336;2024-01-10T07:20:54;13.43;;;9.30;;
3841;SDS011;1936;47.074;15.336;2024-01-10T07:22:59;14.45;;;9.00;;
3841;SDS011;1936;47.074;15.336;2024-01-10T07:25:03;13.23;;;8.27;;
3841;SDS011;1936;47.074;15.336;2024-01-10T07:27:09;12.80;;;8.00;;
3841;SDS011;1936;47.074;15.336;2024-01-10T07:29:13;15.02;;;7.88;;
3841;SDS011;1936;47.074;15.336;2024-01-10T07:31:17;10.13;;;7.57;;
3841;SDS011;1936;47.074;15.336;2024-01-10T07:33:21;15.25;;;9.02;;
3841;SDS011;1936;47.074;15.336;2024-01-10T07:35:24;12.50;;;7.90;;
3841;SDS011;1936;47.074;15.336;2024-01-10T07:37:28;25.63;;;11.95;;
3841;SDS011;1936;47.074;15.336;2024-01-10T07:39:34;24.70;;;14.10;;
3841;SDS011;1936;47.074;15.336;2024-01-10T07:41:39;24.45;;;11.95;;
3841;SDS011;1936;47.074;15.336;2024-01-10T07:43:42;21.90;;;13.80;;
3841;SDS011;1936;47.074;15.336;2024-01-10T07:45:46;32.38;;;17.27;;
3841;SDS011;1936;47.074;15.336;2024-01-10T07:47:50;27.52;;;14.82;;
3841;SDS011;1936;47.074;15.336;2024-01-10T07:49:53;25.20;;;13.32;;
3841;SDS011;1936;47.074;15.336;2024-01-10T07:51:57;16.30;;;10.25;;
3841;SDS011;1936;47.074;15.336;2024-01-10T07:54:00;18.48;;;12.48;;
3841;SDS011;1936;47.074;15.336;2024-01-10T07:56:05;14.50;;;8.93;;
3841;SDS011;1936;47.074;15.336;2024-01-10T07:58:09;15.65;;;10.43;;
3841;SDS011;1936;47.074;15.336;2024-01-10T08:00:13;15.75;;;8.82;;
3841;SDS011;1936;47.074;15.336;2024-01-10T08:02:17;14.32;;;9.30;;
3841;SDS011;1936;47.074;15.336;2024-01-10T08:04:20;15.18;;;11.15;;
3841;SDS011;1936;47.074;15.336;2024-01-10T08:06:24;16.38;;;10.52;;
3841;SDS011;1936;47.074;15.336;2024-01-10T08:08:33;13.05;;;9.63;;
3841;SDS011;1936;47.074;15.336;2024-01-10T08:10:37;15.48;;;9.00;;
3841;SDS011;1936;47.074;15.336;2024-01-10T08:12:41;16.73;;;9.00;;
3841;SDS011;1936;47.074;15.336;2024-01-10T08:14:45;13.98;;;9.75;;
3841;SDS011;1936;47.074;15.336;2024-01-10T08:16:51;12.98;;;8.60;;
3841;SDS011;1936;47.074;15.336;2024-01-10T08:18:56;11.90;;;8.00;;
3841;SDS011;1936;47.074;15.336;2024-01-10T08:21:02;11.38;;;7.38;;
3841;SDS011;1936;47.074;15.336;2024-01-10T08:23:06;15.10;;;8.23;;
3841;SDS011;1936;47.074;15.336;2024-01-10T08:25:10;11.48;;;7.20;;
3841;SDS011;1936;47.074;15.336;2024-01-10T08:27:14;10.52;;;6.82;;
3841;SDS011;1936;47.074;15.336;2024-01-10T08:29:20;16.55;;;8.30;;
3841;SDS011;1936;47.074;15.336;2024-01-10T08:31:24;11.88;;;7.55;;
3841;SDS011;1936;47.074;15.336;2024-01-10T08:33:29;12.57;;;7.90;;
3841;SDS011;1936;47.074;15.336;2024-01-10T08:35:33;10.27;;;7.38;;
3841;SDS011;1936;47.074;15.336;2024-01-10T08:37:36;12.88;;;8.63;;
3841;SDS011;1936;47.074;15.336;2024-01-10T08:39:42;10.32;;;7.78;;
3841;SDS011;1936;47.074;15.336;2024-01-10T08:41:45;11.02;;;8.15;;
3841;SDS011;1936;47.074;15.336;2024-01-10T08:43:49;12.70;;;7.20;;
3841;SDS011;1936;47.074;15.336;2024-01-10T08:45:54;9.90;;;6.50;;
3841;SDS011;1936;47.074;15.336;2024-01-10T08:47:59;11.38;;;8.18;;
3841;SDS011;1936;47.074;15.336;2024-01-10T08:50:06;11.38;;;7.50;;
3841;SDS011;1936;47.074;15.336;2024-01-10T08:52:11;17.83;;;7.22;;
3841;SDS011;1936;47.074;15.336;2024-01-10T08:54:14;12.65;;;7.53;;
3841;SDS011;1936;47.074;15.336;2024-01-10T08:56:21;10.32;;;7.53;;
3841;SDS011;1936;47.074;15.336;2024-01-10T08:58:25;11.37;;;8.67;;
3841;SDS011;1936;47.074;15.336;2024-01-10T09:00:28;11.17;;;8.13;;
3841;SDS011;1936;47.074;15.336;2024-01-10T09:02:33;11.97;;;9.07;;
3841;SDS011;1936;47.074;15.336;2024-01-10T09:04:38;18.03;;;9.03;;
3841;SDS011;1936;47.074;15.336;2024-01-10T09:06:43;11.40;;;8.77;;
3841;SDS011;1936;47.074;15.336;2024-01-10T09:08:46;12.50;;;9.57;;
3841;SDS011;1936;47.074;15.336;2024-01-10T09:10:50;12.63;;;9.43;;
3841;SDS011;1936;47.074;15.336;2024-01-10T09:12:53;14.07;;;10.13;;
3841;SDS011;1936;47.074;15.336;2024-01-10T09:14:57;12.83;;;9.87;;
3841;SDS011;1936;47.074;15.336;2024-01-10T09:17:00;12.67;;;9.70;;
3841;SDS011;1936;47.074;15.336;2024-01-10T09:19:07;12.77;;;9.93;;
3841;SDS011;1936;47.074;15.336;2024-01-10T09:21:12;12.87;;;9.77;;
3841;SDS011;1936;47.074;15.336;2024-01-10T09:23:16;14.50;;;10.93;;
3841;SDS011;1936;47.074;15.336;2024-01-10T09:25:20;14.83;;;10.60;;
3841;SDS011;1936;47.074;15.336;2024-01-10T09:27:23;13.40;;;10.23;;
3841;SDS011;1936;47.074;15.336;2024-01-10T09:29:26;12.53;;;10.10;;
3841;SDS011;1936;47.074;15.336;2024-01-10T09:31:30;13.43;;;9.93;;
3841;SDS011;1936;47.074;15.336;2024-01-10T09:33:34;12.10;;;10.10;;
3841;SDS011;1936;47.074;15.336;2024-01-10T09:35:39;11.43;;;10.00;;
3841;SDS011;1936;47.074;15.336;2024-01-10T09:37:43;11.43;;;9.80;;
3841;SDS011;1936;47.074;15.336;2024-01-10T09:39:47;12.37;;;9.70;;
3841;SDS011;1936;47.074;15.336;2024-01-10T09:41:50;12.70;;;9.70;;
3841;SDS011;1936;47.074;15.336;2024-01-10T09:43:55;13.10;;;10.63;;
3841;SDS011;1936;47.074;15.336;2024-01-10T09:45:59;12.40;;;10.97;;
3841;SDS011;1936;47.074;15.336;2024-01-10T09:48:04;11.13;;;9.90;;
3841;SDS011;1936;47.074;15.336;2024-01-10T09:50:08;13.47;;;10.83;;
3841;SDS011;1936;47.074;15.336;2024-01-10T09:52:16;13.10;;;10.23;;
3841;SDS011;1936;47.074;15.336;2024-01-10T09:55:07;11.30;;;9.80;;
3841;SDS011;1936;47.074;15.336;2024-01-10T09:57:12;12.57;;;10.30;;
3841;SDS011;1936;47.074;15.336;2024-01-10T09:59:16;13.00;;;10.63;;
3841;SDS011;1936;47.074;15.336;2024-01-10T10:01:21;13.80;;;10.57;;
3841;SDS011;1936;47.074;15.336;2024-01-10T10:03:26;11.70;;;9.33;;
3841;SDS011;1936;47.074;15.336;2024-01-10T10:05:30;15.37;;;10.57;;
3841;SDS011;1936;47.074;15.336;2024-01-10T10:07:44;12.73;;;10.20;;
3841;SDS011;1936;47.074;15.336;2024-01-10T10:09:48;11.20;;;9.87;;
3841;SDS011;1936;47.074;15.336;2024-01-10T10:11:53;13.43;;;10.27;;
3841;SDS011;1936;47.074;15.336;2024-01-10T10:13:56;11.43;;;9.70;;
3841;SDS011;1936;47.074;15.336;2024-01-10T10:16:00;11.87;;;9.97;;
3841;SDS011;1936;47.074;15.336;2024-01-10T10:18:04;12.97;;;10.33;;
3841;SDS011;1936;47.074;15.336;2024-01-10T10:20:08;12.43;;;10.70;;
3841;SDS011;1936;47.074;15.336;2024-01-10T10:22:11;10.50;;;9.30;;
3841;SDS011;1936;47.074;15.336;2024-01-10T10:24:16;11.53;;;9.20;;
3841;SDS011;1936;47.074;15.336;2024-01-10T10:26:23;12.10;;;10.53;;
3841;SDS011;1936;47.074;15.336;2024-01-10T10:28:28;11.53;;;9.83;;
3841;SDS011;1936;47.074;15.336;2024-01-10T10:30:36;13.87;;;11.30;;
3841;SDS011;1936;47.074;15.336;2024-01-10T10:32:40;12.60;;;10.10;;
3841;SDS011;1936;47.074;15.336;2024-01-10T10:34:43;10.10;;;9.00;;
3841;SDS011;1936;47.074;15.336;2024-01-10T10:36:46;9.83;;;8.83;;
3841;SDS011;1936;47.074;15.336;2024-01-10T10:38:49;11.07;;;8.60;;
3841;SDS011;1936;47.074;15.336;2024-01-10T10:40:54;12.70;;;10.87;;
3841;SDS011;1936;47.074;15.336;2024-01-10T10:42:58;12.93;;;9.17;;
3841;SDS011;1936;47.074;15.336;2024-01-10T10:45:04;14.00;;;10.67;;
3841;SDS011;1936;47.074;15.336;2024-01-10T10:47:11;10.83;;;9.70;;
3841;SDS011;1936;47.074;15.336;2024-01-10T10:49:17;11.23;;;9.17;;
3841;SDS011;1936;47.074;15.336;2024-01-10T10:51:24;10.87;;;9.40;;
3841;SDS011;1936;47.074;15.336;2024-01-10T10:53:34;11.13;;;9.60;;
3841;SDS011;1936;47.074;15.336;2024-01-10T10:55:38;9.57;;;8.57;;
3841;SDS011;1936;47.074;15.336;2024-01-10T10:57:45;12.10;;;9.60;;
3841;SDS011;1936;47.074;15.336;2024-01-10T11:00:05;10.10;;;7.63;;
3841;SDS011;1936;47.074;15.336;2024-01-10T11:02:10;13.93;;;9.50;;
3841;SDS011;1936;47.074;15.336;2024-01-10T11:04:14;12.00;;;8.60;;
3841;SDS011;1936;47.074;15.336;2024-01-10T11:06:19;10.13;;;8.57;;
3841;SDS011;1936;47.074;15.336;2024-01-10T11:08:23;10.70;;;8.50;;
3841;SDS011;1936;47.074;15.336;2024-01-10T11:10:28;13.93;;;9.60;;
3841;SDS011;1936;47.074;15.336;2024-01-10T11:12:41;15.37;;;9.33;;
3841;SDS011;1936;47.074;15.336;2024-01-10T11:15:02;12.07;;;7.40;;
3841;SDS011;1936;47.074;15.336;2024-01-10T11:22:22;10.67;;;7.23;;
3841;SDS011;1936;47.074;15.336;2024-01-10T11:24:44;9.40;;;8.27;;
3841;SDS011;1936;47.074;15.336;2024-01-10T11:26:47;9.60;;;7.97;;
3841;SDS011;1936;47.074;15.336;2024-01-10T11:28:52;10.07;;;7.80;;
3841;SDS011;1936;47.074;15.336;2024-01-10T11:30:56;12.20;;;8.77;;
3841;SDS011;1936;47.074;15.336;2024-01-10T11:33:02;9.47;;;7.77;;
3841;SDS011;1936;47.074;15.336;2024-01-10T11:35:20;10.67;;;7.50;;
3841;SDS011;1936;47.074;15.336;2024-01-10T11:37:28;9.47;;;7.07;;
3841;SDS011;1936;47.074;15.336;2024-01-10T11:39:41;12.63;;;8.57;;
3841;SDS011;1936;47.074;15.336;2024-01-10T11:41:44;9.40;;;7.23;;
3841;SDS011;1936;47.074;15.336;2024-01-10T11:46:40;15.63;;;8.10;;
3841;SDS011;1936;47.074;15.336;2024-01-10T11:48:44;15.13;;;7.90;;
3841;SDS011;1936;47.074;15.336;2024-01-10T11:50:48;9.37;;;7.33;;
3841;SDS011;1936;47.074;15.336;2024-01-10T11:52:52;10.37;;;8.00;;
3841;SDS011;1936;47.074;15.336;2024-01-10T11:54:56;12.83;;;8.20;;
3841;SDS011;1936;47.074;15.336;2024-01-10T11:57:00;10.33;;;7.80;;
3841;SDS011;1936;47.074;15.336;2024-01-10T11:59:03;10.80;;;7.37;;
3841;SDS011;1936;47.074;15.336;2024-01-10T12:01:10;11.30;;;7.97;;
3841;SDS011;1936;47.074;15.336;2024-01-10T12:03:14;9.33;;;7.87;;
3841;SDS011;1936;47.074;15.336;2024-01-10T12:05:17;6.70;;;5.53;;
3841;SDS011;1936;47.074;15.336;2024-01-10T12:07:21;10.10;;;7.63;;
3841;SDS011;1936;47.074;15.336;2024-01-10T12:09:26;12.70;;;8.27;;
3841;SDS011;1936;47.074;15.336;2024-01-10T12:11:31;9.37;;;6.97;;
3841;SDS011;1936;47.074;15.336;2024-01-10T12:13:35;9.60;;;7.47;;
3841;SDS011;1936;47.074;15.336;2024-01-10T12:15:38;10.73;;;7.37;;
3841;SDS011;1936;47.074;15.336;2024-01-10T12:17:41;10.40;;;7.07;;
3841;SDS011;1936;47.074;15.336;2024-01-10T12:19:46;11.00;;;7.47;;
3841;SDS011;1936;47.074;15.336;2024-01-10T12:21:50;10.80;;;7.57;;
3841;SDS011;1936;47.074;15.336;2024-01-10T12:23:53;9.70;;;7.83;;
3841;SDS011;1936;47.074;15.336;2024-01-10T12:25:57;10.07;;;7.60;;
3841;SDS011;1936;47.074;15.336;2024-01-10T12:28:01;10.53;;;7.70;;
3841;SDS011;1936;47.074;15.336;2024-01-10T12:30:06;14.80;;;7.57;;
3841;SDS011;1936;47.074;15.336;2024-01-10T12:32:10;15.63;;;9.60;;
3841;SDS011;1936;47.074;15.336;2024-01-10T12:34:14;10.20;;;8.40;;
3841;SDS011;1936;47.074;15.336;2024-01-10T12:36:18;12.87;;;8.97;;
3841;SDS011;1936;47.074;15.336;2024-01-10T12:38:22;13.43;;;7.63;;
3841;SDS011;1936;47.074;15.336;2024-01-10T12:40:27;8.90;;;7.20;;